Time;durP1;ratioP1;P1;durP2;ratioP2;P2;SDS_P1;SDS_P2;PMS_P1;PMS_P2;Temp;Humidity;BMP_temperature;BMP_pressure;BME280_temperature;BME280_humidity;BME280_pressure;Samples;Min_cycle;Max_cycle;Signal;HPM_P1;HPM_P2
2021/11/02 00:01:47;;;;;;;;;;;4.70;99.90;;;;;;8392381;28;19912;-63
2021/11/02 00:05:47;;;;;;;;;;;4.60;99.90;;;;;;8392665;28;19912;-63
2021/11/02 00:09:49;;;;;;;;;;;4.50;99.90;;;;;;8391752;28;19958;-63
2021/11/02 00:13:55;;;;;;;;;;;4.80;99.90;;;;;;8374395;28;19904;-63
2021/11/02 00:17:59;;;;;;;;;;;5.10;99.90;;;;;;8392408;28;19908;-63
2021/11/02 00:22:14;;;;;;;;;;;5.60;99.90;;;;;;8390592;28;19909;-63
2021/11/02 00:26:14;;;;;;;;;;;5.90;99.90;;;;;;8374425;28;19911;-63
2021/11/02 00:30:15;;;;;;;;;;;6.00;99.90;;;;;;8392356;28;19995;-63
2021/11/02 00:34:16;;;;;;;;;;;6.00;99.90;;;;;;8398041;28;19916;-63
2021/11/02 00:38:16;;;;;;;;;;;6.10;99.90;;;;;;8397851;28;20295;-63
2021/11/02 00:42:17;;;;;;;;;;;6.30;99.90;;;;;;8397435;28;20318;-63
2021/11/02 00:46:24;;;;;;;;;;;6.40;99.90;;;;;;8397991;28;19954;-63
2021/11/02 00:50:25;;;;;;;;;;;6.40;99.90;;;;;;8396173;28;19999;-63
2021/11/02 00:54:25;;;;;;;;;;;6.40;99.90;;;;;;8397958;28;20365;-63
2021/11/02 00:58:26;;;;;;;;;;;6.40;99.90;;;;;;8396954;28;19904;-63
2021/11/02 01:02:27;;;;;;;;;;;6.30;99.90;;;;;;8396969;28;19908;-63
2021/11/02 01:06:27;;;;;;;;;;;6.40;99.90;;;;;;8397109;28;19926;-63
2021/11/02 01:10:28;;;;;;;;;;;6.70;99.90;;;;;;8396340;28;19904;-62
2021/11/02 01:14:28;;;;;;;;;;;6.70;99.90;;;;;;8378995;28;19905;-63
2021/11/02 01:18:28;;;;;;;;;;;6.80;99.90;;;;;;8396428;28;19905;-63
2021/11/02 01:22:29;;;;;;;;;;;6.50;99.90;;;;;;8378243;28;19909;-63
2021/11/02 01:26:29;;;;;;;;;;;6.30;99.90;;;;;;8378383;28;20360;-63
2021/11/02 01:30:30;;;;;;;;;;;6.10;99.90;;;;;;8378355;28;19916;-63
2021/11/02 01:34:30;;;;;;;;;;;5.70;99.90;;;;;;8396090;28;19916;-63
2021/11/02 01:38:31;;;;;;;;;;;5.60;99.90;;;;;;8395720;28;19928;-63
2021/11/02 01:42:31;;;;;;;;;;;5.30;99.90;;;;;;8394570;28;19940;-63
2021/11/02 01:46:34;;;;;;;;;;;5.40;99.90;;;;;;8396684;28;20006;-63
2021/11/02 01:50:35;;;;;;;;;;;5.40;99.90;;;;;;8395379;28;19904;-63
2021/11/02 01:54:35;;;;;;;;;;;5.40;99.90;;;;;;8395506;28;19905;-63
2021/11/02 01:58:36;;;;;;;;;;;5.40;99.90;;;;;;8395464;28;19982;-63
2021/11/02 02:02:59;;;;;;;;;;;5.40;99.90;;;;;;8395511;28;20317;-63
2021/11/02 02:07:18;;;;;;;;;;;5.80;99.90;;;;;;8395240;28;19949;-63
2021/11/02 02:11:21;;;;;;;;;;;6.10;99.90;;;;;;8394668;28;19950;-63
2021/11/02 02:15:27;;;;;;;;;;;6.20;99.90;;;;;;8395024;28;19916;-63
2021/11/02 02:19:39;;;;;;;;;;;6.30;99.90;;;;;;8394799;28;19911;-63
2021/11/02 02:23:43;;;;;;;;;;;6.50;99.90;;;;;;8376722;28;19961;-63
2021/11/02 02:27:44;;;;;;;;;;;6.40;99.90;;;;;;8376396;28;20287;-63
2021/11/02 02:31:46;;;;;;;;;;;6.20;99.90;;;;;;8375602;28;19938;-63
2021/11/02 02:35:47;;;;;;;;;;;5.90;99.90;;;;;;8394372;28;19905;-63
2021/11/02 02:39:48;;;;;;;;;;;5.70;99.90;;;;;;8394098;28;19909;-63
2021/11/02 02:43:50;;;;;;;;;;;5.60;99.90;;;;;;8392907;28;20364;-63
2021/11/02 02:47:51;;;;;;;;;;;5.50;99.90;;;;;;8393917;28;20028;-63
2021/11/02 02:51:51;;;;;;;;;;;5.60;99.90;;;;;;8375745;28;19905;-63
2021/11/02 02:55:59;;;;;;;;;;;5.70;99.90;;;;;;8393516;28;19949;-63
2021/11/02 03:00:01;;;;;;;;;;;6.10;99.90;;;;;;8393342;28;19962;-63
2021/11/02 03:04:06;;;;;;;;;;;6.10;99.90;;;;;;8393669;28;20037;-63
2021/11/02 03:08:07;;;;;;;;;;;6.10;99.90;;;;;;8393082;28;20375;-63
2021/11/02 03:12:09;;;;;;;;;;;6.20;99.90;;;;;;8393144;28;20019;-63
2021/11/02 03:16:11;;;;;;;;;;;6.50;99.90;;;;;;8393498;28;19912;-63
2021/11/02 03:51:11;;;;;;;;;;;7.50;99.90;;;;;;8392616;28;20383;-64
2021/11/02 03:55:09;;;;;;;;;;;7.50;99.90;;;;;;8392544;28;19995;-64
2021/11/02 05:08:11;;;;;;;;;;;7.50;99.90;;;;;;8395159;28;20276;-65
2021/11/02 05:47:08;;;;;;;;;;;6.50;99.90;;;;;;8372957;28;20423;-64
2021/11/02 06:03:28;;;;;;;;;;;6.40;99.90;;;;;;8395650;28;19912;-65
2021/11/02 06:29:06;;;;;;;;;;;6.00;99.90;;;;;;8395272;28;19915;-64
2021/11/02 06:59:04;;;;;;;;;;;6.30;99.90;;;;;;8394592;28;19998;-63
2021/11/02 07:24:06;;;;;;;;;;;6.90;99.90;;;;;;8394414;28;19904;-64
2021/11/02 08:46:42;;;;;;;;;;;10.00;99.90;;;;;;8398660;28;19912;-64
2021/11/02 08:50:49;;;;;;;;;;;10.00;99.90;;;;;;8379450;28;19920;-62
2021/11/02 08:54:50;;;;;;;;;;;10.00;99.90;;;;;;8398385;28;19904;-64
2021/11/02 08:58:52;;;;;;;;;;;9.90;99.90;;;;;;8397777;28;19999;-64
2021/11/02 09:02:54;;;;;;;;;;;10.00;99.90;;;;;;8398354;28;19908;-65
2021/11/02 09:06:57;;;;;;;;;;;10.10;99.90;;;;;;8397919;28;19912;-63
2021/11/02 09:11:00;;;;;;;;;;;10.40;99.90;;;;;;8397418;28;20372;-64
2021/11/02 09:15:02;;;;;;;;;;;10.40;99.90;;;;;;8398052;28;19905;-64
2021/11/02 09:19:03;;;;;;;;;;;10.30;99.90;;;;;;8416328;22;19920;-61
2021/11/02 09:23:04;;;;;;;;;;;10.20;99.90;;;;;;8363735;28;20414;-62
2021/11/02 09:27:05;;;;;;;;;;;10.10;99.90;;;;;;8363607;28;20392;-61
2021/11/02 09:31:05;;;;;;;;;;;10.00;99.90;;;;;;8364048;28;19958;-61
2021/11/02 09:35:06;;;;;;;;;;;9.70;99.90;;;;;;8363752;28;19995;-61
2021/11/02 09:39:08;;;;;;;;;;;9.40;99.90;;;;;;8363002;28;20315;-61
2021/11/02 09:43:22;;;;;;;;;;;9.30;99.90;;;;;;8362945;28;20268;-61
2021/11/02 09:47:59;;;;;;;;;;;9.20;99.90;;;;;;8363569;28;20262;-62
2021/11/02 09:52:07;;;;;;;;;;;8.90;99.90;;;;;;8311488;28;19908;-62
2021/11/02 09:56:27;;;;;;;;;;;8.50;99.90;;;;;;8363362;28;20403;-62
2021/11/02 10:00:37;;;;;;;;;;;8.40;99.90;;;;;;8329399;28;20014;-62
2021/11/02 10:04:55;;;;;;;;;;;8.50;99.90;;;;;;8328901;28;19958;-62
2021/11/02 10:09:17;;;;;;;;;;;8.70;99.90;;;;;;8344456;28;20391;-62
2021/11/02 10:13:37;;;;;;;;;;;8.80;99.90;;;;;;8315600;28;19905;-61
2021/11/02 10:17:42;;;;;;;;;;;9.10;99.90;;;;;;8329710;28;19912;-62
2021/11/02 10:22:15;;;;;;;;;;;9.10;99.90;;;;;;8328769;28;19913;-62
2021/11/02 10:26:23;;;;;;;;;;;9.00;99.90;;;;;;8284986;28;19951;-61
2021/11/02 10:30:40;;;;;;;;;;;8.90;99.90;;;;;;8328596;28;19905;-61
2021/11/02 10:34:40;;;;;;;;;;;8.90;99.90;;;;;;8328799;28;20412;-61
2021/11/02 10:39:00;;;;;;;;;;;9.00;99.90;;;;;;8328450;28;19992;-61
2021/11/02 10:43:02;;;;;;;;;;;9.00;99.90;;;;;;8328644;28;20366;-61
2021/11/02 10:47:12;;;;;;;;;;;9.20;99.90;;;;;;8328409;28;20372;-62
2021/11/02 10:51:31;;;;;;;;;;;9.20;99.90;;;;;;8327885;28;19905;-61
2021/11/02 10:55:51;;;;;;;;;;;9.20;99.90;;;;;;8328173;28;19916;-61
2021/11/02 10:59:58;;;;;;;;;;;8.80;99.90;;;;;;8357056;28;19905;-61
2021/11/02 11:04:00;;;;;;;;;;;8.70;99.90;;;;;;8360983;28;19951;-61
2021/11/02 11:08:02;;;;;;;;;;;8.80;99.90;;;;;;8360505;28;19911;-61
2021/11/02 11:12:03;;;;;;;;;;;8.80;99.90;;;;;;8360332;28;19912;-62
2021/11/02 11:16:07;;;;;;;;;;;9.00;99.90;;;;;;8360488;28;19912;-62
2021/11/02 11:20:14;;;;;;;;;;;9.10;99.90;;;;;;8360269;28;20389;-61
2021/11/02 11:24:18;;;;;;;;;;;9.20;99.90;;;;;;8360442;28;19905;-62
2021/11/02 11:28:20;;;;;;;;;;;9.20;99.90;;;;;;8360619;28;19999;-61
2021/11/02 11:32:21;;;;;;;;;;;9.10;99.90;;;;;;8342642;28;19904;-62
2021/11/02 11:36:22;;;;;;;;;;;9.20;99.90;;;;;;8359483;28;19999;-61
2021/11/02 11:40:24;;;;;;;;;;;9.30;99.90;;;;;;8359100;28;19909;-62
2021/11/02 11:44:25;;;;;;;;;;;9.40;99.90;;;;;;8359663;28;19905;-61
2021/11/02 11:48:26;;;;;;;;;;;9.90;99.90;;;;;;8342010;28;20270;-62
2021/11/02 11:52:27;;;;;;;;;;;10.10;99.90;;;;;;8359795;28;19905;-62
2021/11/02 11:56:30;;;;;;;;;;;10.10;99.90;;;;;;8360422;28;20296;-61
2021/11/02 12:00:31;;;;;;;;;;;10.00;99.90;;;;;;8359604;28;19909;-62
2021/11/02 12:04:38;;;;;;;;;;;10.60;99.90;;;;;;8359889;28;20003;-62
2021/11/02 12:08:59;;;;;;;;;;;11.20;99.90;;;;;;8359504;28;19905;-61
2021/11/02 12:13:03;;;;;;;;;;;11.60;99.90;;;;;;8358991;28;19912;-62
2021/11/02 12:17:04;;;;;;;;;;;12.40;99.90;;;;;;8359807;28;20343;-61
2021/11/02 12:21:07;;;;;;;;;;;11.40;99.90;;;;;;8359139;28;19916;-62
2021/11/02 12:25:08;;;;;;;;;;;12.30;99.90;;;;;;8359595;28;19904;-62
2021/11/02 12:29:11;;;;;;;;;;;15.90;99.90;;;;;;8364120;28;20442;-62
2021/11/02 12:33:11;;;;;;;;;;;18.90;99.90;;;;;;8365367;28;19904;-62
2021/11/02 12:37:12;;;;;;;;;;;17.30;99.90;;;;;;8365202;28;20430;-62
2021/11/02 12:41:15;;;;;;;;;;;13.80;99.90;;;;;;8364919;28;20058;-62
2021/11/02 12:45:18;;;;;;;;;;;14.50;99.90;;;;;;8365250;28;19962;-62
2021/11/02 12:49:24;;;;;;;;;;;16.10;99.90;;;;;;8365244;28;19909;-62
2021/11/02 12:53:24;;;;;;;;;;;17.50;99.90;;;;;;8364773;28;19935;-62
2021/11/02 12:57:32;;;;;;;;;;;17.80;99.90;;;;;;8364569;28;19905;-62
2021/11/02 13:01:35;;;;;;;;;;;16.20;99.90;;;;;;8364483;28;20304;-62
2021/11/02 13:05:36;;;;;;;;;;;16.90;99.90;;;;;;8364588;28;19904;-62
2021/11/02 13:09:37;;;;;;;;;;;17.80;99.90;;;;;;8363602;28;19905;-62
2021/11/02 13:13:57;;;;;;;;;;;18.30;99.90;;;;;;8364736;28;19951;-62
2021/11/02 13:18:00;;;;;;;;;;;18.40;99.90;;;;;;8363988;28;19904;-62
2021/11/02 13:22:11;;;;;;;;;;;15.70;99.90;;;;;;8345432;28;19962;-62
2021/11/02 13:26:19;;;;;;;;;;;13.30;99.90;;;;;;8363959;28;19916;-62
2021/11/02 13:30:26;;;;;;;;;;;12.00;99.90;;;;;;8363581;28;19911;-62
2021/11/02 13:34:29;;;;;;;;;;;11.70;99.90;;;;;;8363695;28;19909;-62
2021/11/02 13:38:36;;;;;;;;;;;12.90;99.90;;;;;;8363081;28;19904;-62
2021/11/02 13:42:45;;;;;;;;;;;15.30;99.90;;;;;;8363290;28;19908;-62
2021/11/02 13:46:47;;;;;;;;;;;13.80;99.90;;;;;;8363730;28;19905;-62
2021/11/02 13:50:48;;;;;;;;;;;12.10;99.90;;;;;;8344980;28;19912;-62
2021/11/02 13:54:48;;;;;;;;;;;11.80;99.90;;;;;;8363059;28;19904;-62
2021/11/02 13:58:50;;;;;;;;;;;11.80;99.90;;;;;;8362392;28;19995;-62
2021/11/02 14:02:51;;;;;;;;;;;11.70;99.90;;;;;;8362502;28;19908;-62
2021/11/02 14:06:58;;;;;;;;;;;11.90;99.90;;;;;;8361899;28;20011;-62
2021/11/02 14:11:01;;;;;;;;;;;11.80;99.90;;;;;;8343708;28;20365;-62
2021/11/02 14:15:10;;;;;;;;;;;11.40;99.90;;;;;;8362817;28;19916;-61
2021/11/02 14:19:29;;;;;;;;;;;11.00;99.90;;;;;;8361389;28;20365;-62
2021/11/02 14:23:30;;;;;;;;;;;10.90;99.90;;;;;;8361716;28;20296;-62
2021/11/02 14:27:41;;;;;;;;;;;10.70;99.90;;;;;;8343472;28;20090;-62
2021/11/02 14:31:45;;;;;;;;;;;10.50;99.90;;;;;;8342463;28;19940;-62
2021/11/02 14:35:50;;;;;;;;;;;10.30;99.90;;;;;;8361607;28;19954;-62
2021/11/02 14:39:54;;;;;;;;;;;10.20;99.90;;;;;;8361486;28;19905;-62
2021/11/02 14:44:10;;;;;;;;;;;10.10;99.90;;;;;;8361308;28;19979;-61
2021/11/02 14:48:25;;;;;;;;;;;10.10;99.90;;;;;;8361614;28;19905;-62
2021/11/02 14:52:26;;;;;;;;;;;10.00;99.90;;;;;;8360529;28;19912;-62
2021/11/02 14:56:28;;;;;;;;;;;10.00;99.90;;;;;;8361163;28;19908;-62
2021/11/02 15:00:39;;;;;;;;;;;10.10;99.90;;;;;;8360660;28;19908;-62
2021/11/02 15:04:40;;;;;;;;;;;10.10;99.90;;;;;;8361018;28;19905;-61
2021/11/02 15:08:42;;;;;;;;;;;10.20;99.90;;;;;;8360153;28;19912;-62
2021/11/02 15:12:43;;;;;;;;;;;10.20;99.90;;;;;;8361042;28;19950;-62
2021/11/02 15:16:47;;;;;;;;;;;10.20;99.90;;;;;;8360531;28;19947;-62
2021/11/02 15:20:48;;;;;;;;;;;10.00;99.90;;;;;;8391879;22;20450;-62
2021/11/02 15:24:53;;;;;;;;;;;9.70;99.90;;;;;;8395797;28;19910;-64
2021/11/02 15:28:53;;;;;;;;;;;9.50;99.90;;;;;;8394645;28;20338;-65
2021/11/02 15:32:54;;;;;;;;;;;9.50;99.90;;;;;;8395200;28;19904;-63
2021/11/02 15:37:04;;;;;;;;;;;9.50;99.90;;;;;;8394642;28;19909;-63
2021/11/02 15:41:17;;;;;;;;;;;9.40;99.90;;;;;;8394747;28;20406;-64
2021/11/02 15:45:35;;;;;;;;;;;9.30;99.90;;;;;;8395319;28;19911;-64
2021/11/02 15:49:35;;;;;;;;;;;9.10;99.90;;;;;;8376525;28;20379;-64
2021/11/02 15:53:40;;;;;;;;;;;8.80;99.90;;;;;;8395423;28;19978;-64
2021/11/02 15:57:43;;;;;;;;;;;8.70;99.90;;;;;;8394903;28;19912;-64
2021/11/02 16:01:47;;;;;;;;;;;8.50;99.90;;;;;;8377958;28;19914;-64
2021/11/02 16:05:47;;;;;;;;;;;8.40;99.90;;;;;;8401339;28;19911;-64
2021/11/02 16:09:49;;;;;;;;;;;8.30;99.90;;;;;;8400189;28;19905;-64
2021/11/02 16:13:50;;;;;;;;;;;8.30;99.90;;;;;;8400830;28;20022;-65
2021/11/02 16:17:51;;;;;;;;;;;8.30;99.90;;;;;;8400836;28;19908;-64
2021/11/02 16:21:56;;;;;;;;;;;8.30;99.90;;;;;;8400698;28;20410;-64
2021/11/02 16:25:58;;;;;;;;;;;8.20;99.90;;;;;;8400731;28;19958;-64
2021/11/02 16:30:00;;;;;;;;;;;8.10;99.90;;;;;;8400580;28;19904;-64
2021/11/02 16:34:13;;;;;;;;;;;8.00;99.90;;;;;;8400137;28;19905;-64
2021/11/02 16:38:17;;;;;;;;;;;8.00;99.90;;;;;;8398816;28;19989;-64
2021/11/02 16:42:23;;;;;;;;;;;7.80;99.90;;;;;;8373258;28;19916;-64
2021/11/02 16:46:25;;;;;;;;;;;7.70;99.90;;;;;;8397408;28;19986;-64
2021/11/02 16:50:28;;;;;;;;;;;7.60;99.90;;;;;;8396674;28;20397;-64
2021/11/02 16:54:32;;;;;;;;;;;7.40;99.90;;;;;;8381469;28;19958;-63
2021/11/02 16:58:34;;;;;;;;;;;7.30;99.90;;;;;;8398387;28;20340;-64
2021/11/02 17:02:39;;;;;;;;;;;7.20;99.90;;;;;;8398221;28;19909;-64
2021/11/02 17:06:40;;;;;;;;;;;7.10;99.90;;;;;;8380913;28;19950;-64
2021/11/02 17:10:44;;;;;;;;;;;7.10;99.90;;;;;;8397707;28;19950;-65
2021/11/02 17:14:44;;;;;;;;;;;7.10;99.90;;;;;;8397684;28;19904;-65
2021/11/02 17:19:14;;;;;;;;;;;7.00;99.90;;;;;;8397587;28;19905;-64
2021/11/02 17:23:19;;;;;;;;;;;6.90;99.90;;;;;;8380343;28;19912;-64
2021/11/02 17:27:20;;;;;;;;;;;6.70;99.90;;;;;;8397756;28;20385;-65
2021/11/02 17:31:22;;;;;;;;;;;6.90;99.90;;;;;;8397500;28;19954;-64
2021/11/02 17:35:23;;;;;;;;;;;6.90;99.90;;;;;;8397476;28;20003;-64
2021/11/02 17:39:26;;;;;;;;;;;6.80;99.90;;;;;;8397149;28;19905;-64
2021/11/02 17:43:27;;;;;;;;;;;6.90;99.90;;;;;;8398180;28;19939;-63
2021/11/02 17:47:27;;;;;;;;;;;6.90;99.90;;;;;;8396850;28;19911;-64
2021/11/02 17:51:29;;;;;;;;;;;6.90;99.90;;;;;;8396897;28;19920;-64
2021/11/02 17:55:30;;;;;;;;;;;6.60;99.90;;;;;;8396719;28;19904;-64
2021/11/02 17:59:31;;;;;;;;;;;6.60;99.90;;;;;;8395699;28;19905;-63
2021/11/02 18:03:34;;;;;;;;;;;6.30;99.90;;;;;;8396330;28;20398;-64
2021/11/02 18:07:34;;;;;;;;;;;6.10;99.90;;;;;;8395793;28;19987;-64
2021/11/02 18:11:35;;;;;;;;;;;5.70;99.90;;;;;;8396260;28;19904;-64
2021/11/02 18:15:35;;;;;;;;;;;5.60;99.90;;;;;;8396147;28;19971;-64
2021/11/02 18:19:37;;;;;;;;;;;5.30;99.90;;;;;;8377423;28;19916;-64
2021/11/02 18:23:39;;;;;;;;;;;5.30;99.90;;;;;;8395153;28;20287;-64
2021/11/02 18:27:40;;;;;;;;;;;5.20;99.90;;;;;;8395427;28;19912;-64
2021/11/02 18:31:40;;;;;;;;;;;5.20;99.90;;;;;;8395486;28;19957;-64
2021/11/02 18:35:41;;;;;;;;;;;5.00;99.90;;;;;;8395526;28;19951;-64
2021/11/02 18:39:41;;;;;;;;;;;4.70;99.90;;;;;;8394729;28;19908;-65
2021/11/02 18:43:42;;;;;;;;;;;4.60;99.90;;;;;;8395373;28;19908;-63
2021/11/02 18:47:43;;;;;;;;;;;4.50;99.90;;;;;;8394993;28;19908;-64
2021/11/02 18:51:44;;;;;;;;;;;4.50;99.90;;;;;;8395284;28;20328;-64
2021/11/02 18:55:45;;;;;;;;;;;4.40;99.90;;;;;;8395097;28;20291;-64
2021/11/02 18:59:45;;;;;;;;;;;4.30;99.90;;;;;;8394471;28;19912;-64
2021/11/02 19:03:48;;;;;;;;;;;4.40;99.90;;;;;;8395240;28;19913;-64
2021/11/02 19:07:48;;;;;;;;;;;4.50;99.90;;;;;;8394558;28;20000;-65
2021/11/02 19:11:49;;;;;;;;;;;4.40;99.90;;;;;;8394362;28;20280;-64
2021/11/02 19:15:49;;;;;;;;;;;4.30;99.90;;;;;;8394254;28;19920;-64
2021/11/02 19:19:50;;;;;;;;;;;4.20;99.90;;;;;;8393010;28;19919;-64
2021/11/02 19:23:50;;;;;;;;;;;4.30;99.90;;;;;;8390797;28;20375;-64
2021/11/02 19:27:51;;;;;;;;;;;4.30;99.90;;;;;;8392660;28;20581;-64
2021/11/02 19:31:51;;;;;;;;;;;4.50;99.90;;;;;;8390010;28;20288;-63
2021/11/02 19:35:52;;;;;;;;;;;4.40;99.90;;;;;;8383972;28;19913;-64
2021/11/02 19:39:52;;;;;;;;;;;4.30;99.90;;;;;;8373185;28;19993;-64
2021/11/02 19:43:53;;;;;;;;;;;4.20;99.90;;;;;;8385090;28;19962;-65
2021/11/02 19:47:53;;;;;;;;;;;4.00;99.90;;;;;;8384942;28;19944;-64
2021/11/02 19:51:54;;;;;;;;;;;4.00;99.90;;;;;;8395570;28;19912;-65
2021/11/02 19:55:55;;;;;;;;;;;4.10;99.90;;;;;;8380370;28;19908;-64
2021/11/02 19:59:56;;;;;;;;;;;4.00;99.90;;;;;;8390578;28;19909;-64
2021/11/02 20:03:57;;;;;;;;;;;4.20;99.90;;;;;;8396644;28;20283;-65
2021/11/02 20:08:03;;;;;;;;;;;4.20;99.90;;;;;;8396868;28;19908;-64
2021/11/02 20:12:05;;;;;;;;;;;4.10;99.90;;;;;;8393333;28;19904;-64
2021/11/02 20:16:06;;;;;;;;;;;3.80;99.90;;;;;;8387684;28;20264;-64
2021/11/02 20:20:07;;;;;;;;;;;3.70;99.90;;;;;;8369592;28;19920;-63
2021/11/02 20:24:08;;;;;;;;;;;3.60;99.90;;;;;;8388031;28;19927;-64
2021/11/02 20:28:08;;;;;;;;;;;3.50;99.90;;;;;;8396689;28;19905;-65
2021/11/02 20:32:09;;;;;;;;;;;3.20;99.90;;;;;;8381183;28;19909;-63
2021/11/02 20:36:13;;;;;;;;;;;3.10;99.90;;;;;;8387110;28;20008;-64
2021/11/02 20:40:13;;;;;;;;;;;3.30;99.90;;;;;;8364729;28;19908;-64
2021/11/02 20:44:16;;;;;;;;;;;3.30;99.90;;;;;;8375547;28;20283;-63
2021/11/02 20:48:17;;;;;;;;;;;3.20;99.90;;;;;;8389301;28;19930;-64
2021/11/02 20:52:19;;;;;;;;;;;3.20;99.90;;;;;;8388163;28;20395;-63
2021/11/02 20:56:20;;;;;;;;;;;3.30;99.90;;;;;;8393840;28;20037;-62
2021/11/02 21:00:21;;;;;;;;;;;3.40;99.90;;;;;;8361113;28;19905;-64
2021/11/02 21:04:22;;;;;;;;;;;3.40;99.90;;;;;;8383770;28;19920;-63
2021/11/02 21:08:26;;;;;;;;;;;3.40;99.90;;;;;;8376648;28;20015;-64
2021/11/02 21:12:26;;;;;;;;;;;3.10;99.90;;;;;;8396425;28;19911;-64
2021/11/02 21:16:27;;;;;;;;;;;3.00;99.90;;;;;;8397188;28;19908;-64
2021/11/02 21:20:28;;;;;;;;;;;2.90;99.90;;;;;;8400709;22;19929;-63
2021/11/02 21:24:28;;;;;;;;;;;2.90;99.90;;;;;;8395485;28;19913;-63
2021/11/02 21:28:29;;;;;;;;;;;2.90;99.90;;;;;;8395656;28;19951;-63
2021/11/02 21:32:32;;;;;;;;;;;3.00;99.90;;;;;;8370169;28;19962;-63
2021/11/02 21:36:34;;;;;;;;;;;2.80;99.90;;;;;;8363604;28;19908;-63
2021/11/02 21:40:35;;;;;;;;;;;2.70;99.90;;;;;;8362070;28;20393;-64
2021/11/02 21:44:36;;;;;;;;;;;2.40;99.90;;;;;;8361490;28;20003;-63
2021/11/02 21:48:39;;;;;;;;;;;2.40;99.90;;;;;;8344531;28;19911;-64
2021/11/02 21:52:46;;;;;;;;;;;2.30;99.90;;;;;;8363063;28;19904;-63
2021/11/02 21:56:50;;;;;;;;;;;2.40;99.90;;;;;;8362937;28;19904;-63
2021/11/02 22:00:52;;;;;;;;;;;2.20;99.90;;;;;;8344656;28;20464;-63
2021/11/02 22:04:56;;;;;;;;;;;2.20;99.90;;;;;;8361400;28;19915;-63
2021/11/02 22:08:56;;;;;;;;;;;2.20;99.90;;;;;;8362358;28;19911;-63
2021/11/02 22:12:57;;;;;;;;;;;2.40;99.90;;;;;;8362472;28;20265;-63
2021/11/02 22:16:57;;;;;;;;;;;2.40;99.90;;;;;;8362220;28;19904;-64
2021/11/02 22:20:58;;;;;;;;;;;2.40;99.90;;;;;;8362046;28;19916;-64
2021/11/02 22:24:58;;;;;;;;;;;2.30;99.90;;;;;;8361737;28;20292;-63
2021/11/02 22:28:59;;;;;;;;;;;2.10;99.90;;;;;;8361563;28;19904;-63
2021/11/02 22:33:01;;;;;;;;;;;2.40;99.90;;;;;;8361483;28;19912;-63
2021/11/02 22:37:01;;;;;;;;;;;2.30;99.90;;;;;;8361587;28;20364;-63
2021/11/02 22:41:02;;;;;;;;;;;2.40;99.90;;;;;;8361371;28;19908;-64
2021/11/02 22:45:03;;;;;;;;;;;2.50;99.90;;;;;;8361514;28;19958;-63
2021/11/02 22:49:03;;;;;;;;;;;2.50;99.90;;;;;;8361118;28;19995;-63
2021/11/02 22:53:05;;;;;;;;;;;2.60;99.90;;;;;;8361186;28;19995;-63
2021/11/02 22:57:06;;;;;;;;;;;2.70;99.90;;;;;;8360716;28;19962;-63
2021/11/02 23:01:06;;;;;;;;;;;2.50;99.90;;;;;;8343472;28;20297;-63
2021/11/02 23:05:07;;;;;;;;;;;2.30;99.90;;;;;;8360843;28;19912;-63
2021/11/02 23:09:08;;;;;;;;;;;2.40;99.90;;;;;;8360606;28;19909;-63
2021/11/02 23:13:11;;;;;;;;;;;2.50;99.90;;;;;;8360154;28;19995;-63
2021/11/02 23:17:11;;;;;;;;;;;2.30;99.90;;;;;;8360518;28;20274;-63
2021/11/02 23:21:12;;;;;;;;;;;2.30;99.90;;;;;;8360580;28;19996;-63
2021/11/02 23:25:18;;;;;;;;;;;2.10;99.90;;;;;;8360425;28;19908;-64
2021/11/02 23:29:20;;;;;;;;;;;2.00;99.90;;;;;;8359555;28;20416;-64
2021/11/02 23:33:21;;;;;;;;;;;2.00;99.90;;;;;;8360381;28;19905;-64
2021/11/02 23:37:21;;;;;;;;;;;2.00;99.90;;;;;;8360261;28;20289;-63
2021/11/02 23:41:23;;;;;;;;;;;1.90;99.90;;;;;;8360178;28;19909;-63
2021/11/02 23:45:23;;;;;;;;;;;2.00;99.90;;;;;;8360617;28;19996;-64
2021/11/02 23:49:24;;;;;;;;;;;2.20;99.90;;;;;;8359944;28;19912;-63
2021/11/02 23:53:25;;;;;;;;;;;2.10;99.90;;;;;;8360264;28;19912;-63
2021/11/02 23:57:25;;;;;;;;;;;2.10;99.90;;;;;;8360066;28;19908;-63
